createdAt,value
2019-01-30T00:00:17.708Z,1.30
2019-01-30T00:02:46.491Z,1.20
2019-01-30T00:05:14.424Z,1.20
2019-01-30T00:07:42.569Z,1.20
2019-01-30T00:10:10.626Z,1.20
2019-01-30T00:12:38.716Z,1.20
2019-01-30T00:15:06.757Z,1.20
2019-01-30T00:17:34.651Z,1.10
2019-01-30T00:20:02.760Z,1.20
2019-01-30T00:22:50.102Z,1.20
2019-01-30T00:25:29.106Z,1.20
2019-01-30T00:27:57.177Z,1.20
2019-01-30T00:30:25.401Z,1.20
2019-01-30T00:32:53.468Z,1.20
2019-01-30T00:35:24.526Z,1.20
2019-01-30T00:37:52.527Z,1.20
2019-01-30T00:40:20.695Z,1.20
2019-01-30T00:42:48.610Z,1.10
2019-01-30T00:45:16.656Z,1.10
2019-01-30T00:47:44.618Z,1.10
2019-01-30T00:50:13.341Z,1.10
2019-01-30T00:52:41.399Z,1.00
2019-01-30T00:55:09.549Z,1.00
2019-01-30T00:57:37.511Z,1.00
2019-01-30T01:00:14.356Z,1.10
2019-01-30T01:02:36.801Z,1.00
2019-01-30T01:05:05.511Z,1.00
2019-01-30T01:07:33.431Z,1.00
2019-01-30T01:10:01.373Z,1.10
2019-01-30T01:12:29.342Z,1.00
2019-01-30T01:14:57.235Z,1.00
2019-01-30T01:17:25.182Z,1.00
2019-01-30T01:19:53.087Z,1.10
2019-01-30T01:22:21.004Z,1.10
2019-01-30T01:24:48.998Z,1.00
2019-01-30T01:27:17.097Z,1.00
2019-01-30T01:29:45.040Z,0.80
2019-01-30T01:32:12.927Z,0.70
2019-01-30T01:34:40.853Z,0.70
2019-01-30T01:37:08.723Z,0.70
2019-01-30T01:39:36.665Z,0.70
2019-01-30T01:42:04.640Z,0.60
2019-01-30T01:44:32.538Z,0.60
2019-01-30T01:47:00.457Z,0.60
2019-01-30T01:49:28.428Z,0.60
2019-01-30T01:51:56.422Z,0.60
2019-01-30T01:54:24.339Z,0.60
2019-01-30T01:56:52.233Z,0.70
2019-01-30T01:59:20.155Z,0.70
2019-01-30T02:01:48.036Z,0.70
2019-01-30T02:04:15.894Z,0.70
2019-01-30T02:06:43.858Z,0.60
2019-01-30T02:09:11.872Z,0.70
2019-01-30T02:11:39.851Z,0.70
2019-01-30T02:14:07.771Z,0.70
2019-01-30T02:16:35.762Z,0.60
2019-01-30T02:19:03.936Z,0.60
2019-01-30T02:21:31.826Z,0.60
2019-01-30T02:23:59.747Z,0.60
2019-01-30T02:26:27.642Z,0.60
2019-01-30T02:28:55.535Z,0.60
2019-01-30T02:31:23.542Z,0.70
2019-01-30T02:33:51.451Z,0.70
2019-01-30T02:36:19.397Z,0.70
2019-01-30T02:38:47.337Z,0.70
2019-01-30T02:41:15.287Z,0.60
2019-01-30T02:43:43.171Z,0.60
2019-01-30T02:46:11.092Z,0.60
2019-01-30T02:48:39.230Z,0.60
2019-01-30T02:51:07.144Z,0.60
2019-01-30T02:53:35.041Z,0.60
2019-01-30T02:56:02.958Z,0.60
2019-01-30T02:58:30.896Z,0.60
2019-01-30T03:00:59.630Z,0.60
2019-01-30T03:03:27.931Z,0.60
2019-01-30T03:05:55.807Z,0.60
2019-01-30T03:08:23.888Z,0.60
2019-01-30T03:10:51.892Z,0.60
2019-01-30T03:13:19.816Z,0.60
2019-01-30T03:15:47.768Z,0.70
2019-01-30T03:18:15.673Z,0.60
2019-01-30T03:20:43.608Z,0.60
2019-01-30T03:23:11.650Z,0.60
2019-01-30T03:25:39.566Z,0.60
2019-01-30T03:28:07.454Z,0.50
2019-01-30T03:30:35.490Z,0.50
2019-01-30T03:33:03.476Z,0.50
2019-01-30T03:35:31.502Z,0.50
2019-01-30T03:37:59.503Z,0.50
2019-01-30T03:40:27.647Z,0.50
2019-01-30T03:42:58.926Z,0.50
2019-01-30T03:45:26.898Z,0.50
2019-01-30T03:47:54.879Z,0.40
2019-01-30T03:50:22.876Z,0.40
2019-01-30T03:52:50.832Z,0.50
2019-01-30T03:55:18.853Z,0.40
2019-01-30T03:57:46.776Z,0.40
2019-01-30T04:00:15.928Z,0.40
2019-01-30T04:02:43.979Z,0.40
2019-01-30T04:05:12.729Z,0.40
2019-01-30T04:07:40.655Z,0.40
2019-01-30T04:10:10.058Z,0.30
2019-01-30T04:12:38.027Z,0.40
2019-01-30T04:15:06.339Z,0.30
2019-01-30T04:17:34.281Z,0.40
2019-01-30T04:20:02.175Z,0.40
2019-01-30T04:22:30.068Z,0.30
2019-01-30T04:24:58.064Z,0.30
2019-01-30T04:27:25.939Z,0.30
2019-01-30T04:29:53.843Z,0.30
2019-01-30T04:32:21.786Z,0.30
2019-01-30T04:34:49.763Z,0.20
2019-01-30T04:37:17.695Z,0.30
2019-01-30T04:39:45.732Z,0.20
2019-01-30T04:42:14.239Z,0.20
2019-01-30T04:44:42.175Z,0.30
2019-01-30T04:47:10.314Z,0.30
2019-01-30T04:49:38.272Z,0.30
2019-01-30T04:52:08.873Z,0.30
2019-01-30T04:54:36.782Z,0.30
2019-01-30T04:57:04.813Z,0.30
2019-01-30T04:59:32.787Z,0.30
2019-01-30T05:02:00.762Z,0.30
2019-01-30T05:04:28.719Z,0.30
2019-01-30T05:06:56.635Z,0.30
2019-01-30T05:09:24.827Z,0.40
2019-01-30T05:11:52.777Z,0.40
2019-01-30T05:14:20.710Z,0.30
2019-01-30T05:16:48.593Z,0.40
2019-01-30T05:19:16.652Z,0.40
2019-01-30T05:21:44.613Z,0.40
2019-01-30T05:24:12.544Z,0.40
2019-01-30T05:26:40.463Z,0.30
2019-01-30T05:29:08.597Z,0.30
2019-01-30T05:31:36.525Z,0.30
2019-01-30T05:34:04.571Z,0.30
2019-01-30T05:36:32.496Z,0.30
2019-01-30T05:39:00.491Z,0.30
2019-01-30T05:41:28.526Z,0.30
2019-01-30T05:43:56.502Z,0.30
2019-01-30T05:46:24.537Z,0.40
2019-01-30T05:48:52.428Z,0.40
2019-01-30T05:51:20.469Z,0.40
2019-01-30T05:53:48.473Z,0.30
2019-01-30T05:56:16.369Z,0.30
2019-01-30T05:58:44.333Z,0.30
2019-01-30T06:01:12.229Z,0.20
2019-01-30T06:03:40.119Z,0.20
2019-01-30T06:06:08.078Z,0.20
2019-01-30T06:08:36.079Z,0.20
2019-01-30T06:11:04.103Z,0.20
2019-01-30T06:13:32.010Z,0.30
2019-01-30T06:15:59.904Z,0.30
2019-01-30T06:18:27.785Z,0.30
2019-01-30T06:20:55.683Z,0.30
2019-01-30T06:23:23.707Z,0.30
2019-01-30T06:25:51.598Z,0.30
2019-01-30T06:28:19.643Z,0.20
2019-01-30T06:30:47.652Z,0.20
2019-01-30T06:33:15.791Z,0.10
2019-01-30T06:35:43.782Z,0.10
2019-01-30T06:38:11.764Z,0.20
2019-01-30T06:40:41.890Z,0.20
2019-01-30T06:43:09.951Z,0.30
2019-01-30T06:45:37.899Z,0.30
2019-01-30T06:48:06.085Z,0.40
2019-01-30T06:50:36.867Z,0.30
2019-01-30T06:53:04.813Z,0.30
2019-01-30T06:55:32.789Z,0.30
2019-01-30T06:58:00.731Z,0.40
2019-01-30T07:00:28.738Z,0.40
2019-01-30T07:02:57.182Z,0.50
2019-01-30T07:05:25.174Z,0.40
2019-01-30T07:07:53.143Z,0.40
2019-01-30T07:10:22.176Z,0.40
2019-01-30T07:12:50.165Z,0.40
2019-01-30T07:15:18.220Z,0.40
2019-01-30T07:17:46.230Z,0.40
2019-01-30T07:20:14.271Z,0.50
2019-01-30T07:22:44.458Z,0.50
2019-01-30T07:25:12.932Z,0.50
2019-01-30T07:27:40.819Z,0.60
2019-01-30T07:30:11.242Z,0.60
2019-01-30T07:32:42.290Z,0.70
2019-01-30T07:35:08.919Z,0.70
2019-01-30T07:37:36.967Z,0.80
2019-01-30T07:40:05.363Z,0.80
2019-01-30T07:42:33.236Z,0.90
2019-01-30T07:45:01.138Z,0.90
2019-01-30T07:47:29.117Z,0.90
2019-01-30T07:49:57.006Z,1.00
2019-01-30T07:52:24.991Z,1.00
2019-01-30T07:54:53.010Z,1.00
2019-01-30T07:57:21.095Z,1.10
2019-01-30T07:59:49.078Z,1.10
2019-01-30T08:02:17.162Z,1.10
2019-01-30T08:04:45.108Z,1.10
2019-01-30T08:07:13.022Z,1.10
2019-01-30T08:09:40.947Z,1.30
2019-01-30T08:12:08.816Z,1.40
2019-01-30T08:14:36.944Z,1.60
2019-01-30T08:17:04.912Z,1.70
2019-01-30T08:19:32.848Z,1.70
2019-01-30T08:22:00.774Z,1.70
2019-01-30T08:24:28.857Z,1.70
2019-01-30T08:26:57.140Z,1.70
2019-01-30T08:29:25.009Z,1.70
2019-01-30T08:31:53.077Z,1.80
2019-01-30T08:34:21.162Z,1.90
2019-01-30T08:36:49.189Z,1.90
2019-01-30T08:39:17.143Z,2.00
2019-01-30T08:41:45.092Z,2.00
2019-01-30T08:44:12.979Z,2.00
2019-01-30T08:46:40.889Z,2.10
2019-01-30T08:49:08.776Z,2.20
2019-01-30T08:51:36.776Z,2.30
2019-01-30T08:54:04.972Z,2.30
2019-01-30T08:56:38.723Z,2.30
2019-01-30T08:59:02.515Z,2.30
2019-01-30T09:01:30.512Z,2.40
2019-01-30T09:03:58.425Z,2.40
2019-01-30T09:06:26.396Z,2.50
2019-01-30T09:08:54.302Z,2.60
2019-01-30T09:11:22.301Z,2.60
2019-01-30T09:13:50.248Z,2.60
2019-01-30T09:16:18.139Z,2.60
2019-01-30T09:18:46.109Z,2.60
2019-01-30T09:21:14.363Z,2.60
2019-01-30T09:23:42.264Z,2.60
2019-01-30T09:26:10.225Z,2.60
2019-01-30T09:28:38.154Z,2.70
2019-01-30T09:31:06.063Z,2.70
2019-01-30T09:33:33.943Z,2.80
2019-01-30T09:36:02.023Z,2.80
2019-01-30T09:38:30.165Z,2.90
2019-01-30T09:40:58.226Z,2.90
2019-01-30T09:43:26.378Z,3.00
2019-01-30T09:45:54.277Z,3.10
2019-01-30T09:48:22.185Z,3.20
2019-01-30T09:50:50.287Z,3.20
2019-01-30T09:53:18.323Z,3.30
2019-01-30T09:55:46.478Z,3.40
2019-01-30T09:58:14.428Z,3.40
2019-01-30T10:00:42.407Z,3.50
2019-01-30T10:03:10.352Z,3.60
2019-01-30T10:05:38.474Z,3.60
2019-01-30T10:08:07.035Z,3.70
2019-01-30T10:10:35.688Z,3.80
2019-01-30T10:13:03.983Z,3.80
2019-01-30T10:15:33.316Z,3.90
2019-01-30T10:18:01.377Z,4.10
2019-01-30T10:20:29.514Z,4.20
2019-01-30T10:22:57.698Z,4.30
2019-01-30T10:25:25.661Z,4.50
2019-01-30T10:27:53.568Z,4.60
2019-01-30T10:30:22.789Z,5.00
2019-01-30T10:32:50.799Z,5.70
2019-01-30T10:35:18.810Z,6.80
2019-01-30T10:37:46.683Z,8.30
2019-01-30T10:40:15.609Z,9.80
2019-01-30T10:42:43.645Z,11.20
2019-01-30T10:45:11.687Z,12.10
2019-01-30T10:47:39.584Z,13.10
2019-01-30T10:50:08.546Z,13.90
2019-01-30T10:52:36.575Z,14.90
2019-01-30T10:55:05.037Z,15.20
2019-01-30T10:57:33.022Z,15.20
2019-01-30T11:00:01.016Z,15.70
2019-01-30T11:02:28.950Z,16.10
2019-01-30T11:04:56.895Z,16.90
2019-01-30T11:07:24.771Z,17.00
2019-01-30T11:09:52.724Z,17.10
2019-01-30T11:12:20.693Z,16.70
2019-01-30T11:14:48.621Z,16.30
2019-01-30T11:17:16.580Z,16.30
2019-01-30T11:19:45.462Z,15.40
2019-01-30T11:22:13.615Z,14.80
2019-01-30T11:24:41.520Z,13.70
2019-01-30T11:27:09.511Z,12.80
2019-01-30T11:29:37.412Z,11.40
2019-01-30T11:32:05.452Z,10.70
2019-01-30T11:34:33.537Z,10.00
2019-01-30T11:37:01.711Z,9.50
2019-01-30T11:39:29.673Z,8.90
2019-01-30T11:41:57.650Z,8.20
2019-01-30T11:44:27.907Z,8.10
2019-01-30T11:46:55.191Z,7.70
2019-01-30T11:49:23.233Z,7.50
2019-01-30T11:51:51.273Z,7.20
2019-01-30T11:54:19.408Z,7.00
2019-01-30T11:56:50.529Z,6.70
2019-01-30T11:59:18.515Z,6.50
2019-01-30T12:01:46.493Z,6.60
2019-01-30T12:04:18.046Z,6.50
2019-01-30T12:06:44.216Z,6.50
2019-01-30T12:09:12.853Z,6.40
2019-01-30T12:11:40.831Z,6.40
2019-01-30T12:14:09.198Z,6.40
2019-01-30T12:16:37.268Z,6.40
2019-01-30T12:19:05.497Z,6.50
2019-01-30T12:21:33.650Z,6.60
2019-01-30T12:24:01.661Z,6.50
2019-01-30T12:26:29.586Z,6.50
2019-01-30T12:28:57.720Z,6.30
2019-01-30T12:31:25.571Z,6.40
2019-01-30T12:33:53.455Z,6.30
2019-01-30T12:36:21.491Z,6.30
2019-01-30T12:38:49.498Z,6.20
2019-01-30T12:41:17.475Z,6.20
2019-01-30T12:43:45.516Z,6.30
2019-01-30T12:46:13.664Z,6.40
2019-01-30T12:48:41.634Z,6.40
2019-01-30T12:51:20.894Z,6.50
2019-01-30T12:53:48.959Z,6.60
2019-01-30T12:56:16.854Z,6.60
2019-01-30T12:58:44.879Z,6.60
2019-01-30T13:01:12.888Z,6.70
2019-01-30T13:03:40.850Z,6.70
2019-01-30T13:06:11.060Z,6.70
2019-01-30T13:08:39.103Z,6.80
2019-01-30T13:11:07.059Z,6.80
2019-01-30T13:13:35.003Z,6.80
2019-01-30T13:16:03.020Z,6.80
2019-01-30T13:18:30.992Z,6.80
2019-01-30T13:20:58.964Z,6.80
2019-01-30T13:23:26.871Z,6.80
2019-01-30T13:25:55.567Z,6.80
2019-01-30T13:28:23.545Z,6.80
2019-01-30T13:30:51.495Z,6.60
2019-01-30T13:33:19.487Z,6.60
2019-01-30T13:35:47.604Z,6.70
2019-01-30T13:38:15.520Z,6.70
2019-01-30T13:40:43.439Z,6.70
2019-01-30T13:43:11.409Z,6.60
2019-01-30T13:45:39.355Z,6.40
2019-01-30T13:48:09.132Z,6.40
2019-01-30T13:50:37.589Z,6.30
2019-01-30T13:53:05.748Z,6.20
2019-01-30T13:55:33.672Z,6.20
2019-01-30T13:58:01.778Z,6.20
2019-01-30T14:00:30.871Z,6.20
2019-01-30T14:02:58.981Z,6.10
2019-01-30T14:05:27.042Z,6.10
2019-01-30T14:07:55.101Z,6.10
2019-01-30T14:10:23.121Z,6.10
2019-01-30T14:12:51.140Z,6.00
2019-01-30T14:15:20.169Z,6.00
2019-01-30T14:17:48.255Z,6.00
2019-01-30T14:20:16.478Z,5.80
2019-01-30T14:22:44.436Z,5.80
2019-01-30T14:25:12.688Z,5.80
2019-01-30T14:27:40.780Z,5.70
2019-01-30T14:30:11.525Z,5.50
2019-01-30T14:32:39.782Z,5.40
2019-01-30T14:35:10.680Z,5.30
2019-01-30T14:37:37.789Z,5.30
2019-01-30T14:40:06.583Z,5.30
2019-01-30T14:42:34.622Z,5.30
2019-01-30T14:45:02.713Z,5.30
2019-01-30T14:47:33.591Z,5.40
2019-01-30T14:50:01.523Z,5.20
2019-01-30T14:52:29.556Z,5.20
2019-01-30T14:54:57.478Z,5.10
2019-01-30T14:57:25.465Z,5.10
2019-01-30T14:59:53.410Z,5.10
2019-01-30T15:02:21.518Z,5.00
2019-01-30T15:04:49.538Z,5.00
2019-01-30T15:07:28.123Z,4.90
2019-01-30T15:09:47.158Z,4.90
2019-01-30T15:12:15.190Z,4.80
2019-01-30T15:14:43.143Z,4.80
2019-01-30T15:17:11.015Z,4.60
2019-01-30T15:19:39.019Z,4.60
2019-01-30T15:22:07.015Z,4.40
2019-01-30T15:24:34.928Z,4.40
2019-01-30T15:27:02.830Z,4.40
2019-01-30T15:29:30.767Z,4.30
2019-01-30T15:31:58.650Z,4.20
2019-01-30T15:34:26.523Z,4.10
2019-01-30T15:36:54.587Z,4.00
2019-01-30T15:39:22.555Z,4.00
2019-01-30T15:41:50.476Z,3.90
2019-01-30T15:44:18.498Z,3.80
2019-01-30T15:46:46.414Z,3.80
2019-01-30T15:49:14.421Z,3.80
2019-01-30T15:51:42.440Z,3.70
2019-01-30T15:54:10.555Z,3.70
2019-01-30T15:56:38.635Z,3.70
2019-01-30T15:59:08.059Z,3.60
2019-01-30T16:01:38.099Z,3.50
2019-01-30T16:04:06.216Z,3.50
2019-01-30T16:06:34.136Z,3.50
2019-01-30T16:09:02.003Z,3.40
2019-01-30T16:11:30.029Z,3.40
2019-01-30T16:13:57.995Z,3.40
2019-01-30T16:16:26.079Z,3.40
2019-01-30T16:18:54.028Z,3.40
2019-01-30T16:21:21.973Z,3.40
2019-01-30T16:23:50.188Z,3.30
2019-01-30T16:26:18.224Z,3.30
2019-01-30T16:28:46.338Z,3.30
2019-01-30T16:31:14.401Z,3.30
2019-01-30T16:33:42.448Z,3.30
2019-01-30T16:36:10.475Z,3.30
2019-01-30T16:38:38.552Z,3.30
2019-01-30T16:41:06.809Z,3.20
2019-01-30T16:43:34.788Z,3.20
2019-01-30T16:46:02.703Z,3.20
2019-01-30T16:48:31.083Z,3.20
2019-01-30T16:50:59.184Z,3.20
2019-01-30T16:53:27.120Z,3.20
2019-01-30T16:55:57.932Z,3.10
2019-01-30T16:58:25.935Z,3.20
2019-01-30T17:00:53.956Z,3.20
2019-01-30T17:03:21.980Z,3.10
2019-01-30T17:05:49.881Z,3.10
2019-01-30T17:08:17.802Z,3.10
2019-01-30T17:10:45.888Z,3.10
2019-01-30T17:13:14.184Z,3.00
2019-01-30T17:15:42.211Z,2.90
2019-01-30T17:18:11.146Z,2.90
2019-01-30T17:20:39.436Z,2.90
2019-01-30T17:23:07.459Z,2.90
2019-01-30T17:25:35.520Z,3.00
2019-01-30T17:28:03.654Z,2.90
2019-01-30T17:30:36.039Z,2.90
2019-01-30T17:33:04.376Z,2.80
2019-01-30T17:35:32.394Z,2.70
2019-01-30T17:38:00.317Z,2.70
2019-01-30T17:40:28.617Z,2.70
2019-01-30T17:42:56.655Z,2.70
2019-01-30T17:45:24.636Z,2.60
2019-01-30T17:47:52.801Z,2.60
2019-01-30T17:50:22.345Z,2.60
2019-01-30T17:52:50.317Z,2.60
2019-01-30T17:55:18.336Z,2.60
2019-01-30T17:57:46.242Z,2.60
2019-01-30T18:00:19.970Z,2.60
2019-01-30T18:02:47.996Z,2.50
2019-01-30T18:05:15.887Z,2.60
2019-01-30T18:07:43.954Z,2.60
2019-01-30T18:10:12.103Z,2.50
2019-01-30T18:12:40.046Z,2.60
2019-01-30T18:15:08.381Z,2.70
2019-01-30T18:17:36.461Z,2.70
2019-01-30T18:20:08.050Z,2.70
2019-01-30T18:22:35.972Z,2.70
2019-01-30T18:25:04.597Z,2.80
2019-01-30T18:27:32.545Z,2.80
2019-01-30T18:30:00.616Z,2.90
2019-01-30T18:32:28.658Z,2.80
2019-01-30T18:34:56.682Z,2.90
2019-01-30T18:37:27.750Z,2.90
2019-01-30T18:39:55.648Z,2.80
2019-01-30T18:42:23.688Z,2.80
2019-01-30T18:44:51.763Z,2.80
2019-01-30T18:47:19.820Z,2.80
2019-01-30T18:49:47.798Z,2.80
2019-01-30T18:52:15.840Z,2.80
2019-01-30T18:54:43.813Z,2.80
2019-01-30T18:57:11.785Z,2.70
2019-01-30T18:59:39.921Z,2.60
2019-01-30T19:02:07.925Z,2.40
2019-01-30T19:04:35.832Z,2.40
2019-01-30T19:07:04.636Z,2.40
2019-01-30T19:09:32.550Z,2.30
2019-01-30T19:12:00.544Z,2.20
2019-01-30T19:14:28.636Z,2.20
2019-01-30T19:16:56.530Z,2.20
2019-01-30T19:19:24.492Z,2.20
2019-01-30T19:21:52.402Z,2.20
2019-01-30T19:24:20.381Z,2.20
2019-01-30T19:26:48.305Z,2.20
2019-01-30T19:29:16.397Z,2.10
2019-01-30T19:31:44.377Z,2.10
2019-01-30T19:34:12.468Z,2.10
2019-01-30T19:36:40.563Z,2.00
2019-01-30T19:39:09.419Z,2.10
2019-01-30T19:41:37.442Z,2.00
2019-01-30T19:44:05.518Z,2.00
2019-01-30T19:46:33.463Z,2.10
2019-01-30T19:49:01.580Z,2.10
2019-01-30T19:51:29.656Z,2.10
2019-01-30T19:53:57.606Z,2.10
2019-01-30T19:56:25.558Z,2.00
2019-01-30T19:58:53.545Z,2.10
2019-01-30T20:01:21.551Z,2.00
2019-01-30T20:03:49.703Z,2.00
2019-01-30T20:06:19.832Z,2.00
2019-01-30T20:08:48.629Z,2.00
2019-01-30T20:11:20.148Z,2.00
2019-01-30T20:13:48.356Z,2.00
2019-01-30T20:16:16.427Z,2.00
2019-01-30T20:18:44.394Z,2.00
2019-01-30T20:21:12.721Z,2.00
2019-01-30T20:23:42.175Z,2.00
2019-01-30T20:26:10.106Z,2.00
2019-01-30T20:28:40.813Z,2.00
2019-01-30T20:31:09.315Z,1.90
2019-01-30T20:33:37.703Z,1.90
2019-01-30T20:36:07.431Z,1.80
2019-01-30T20:38:35.367Z,1.90
2019-01-30T20:41:03.363Z,1.80
2019-01-30T20:43:31.380Z,1.90
2019-01-30T20:45:59.676Z,1.90
2019-01-30T20:48:27.698Z,1.90
2019-01-30T20:50:55.687Z,1.90
2019-01-30T20:53:23.615Z,1.90
2019-01-30T20:55:51.510Z,1.90
2019-01-30T20:58:19.419Z,1.80
2019-01-30T21:00:47.394Z,1.80
2019-01-30T21:03:15.465Z,1.70
2019-01-30T21:05:45.067Z,1.70
2019-01-30T21:08:13.202Z,1.70
2019-01-30T21:10:41.537Z,1.70
2019-01-30T21:13:10.100Z,1.70
2019-01-30T21:15:38.972Z,1.70
2019-01-30T21:18:06.982Z,1.70
2019-01-30T21:20:34.930Z,1.70
2019-01-30T21:23:03.026Z,1.70
2019-01-30T21:25:32.163Z,1.80
2019-01-30T21:28:00.225Z,1.80
2019-01-30T21:30:29.610Z,1.80
2019-01-30T21:32:57.639Z,1.80
2019-01-30T21:35:25.621Z,1.80
2019-01-30T21:37:53.502Z,1.70
2019-01-30T21:40:21.481Z,1.80
2019-01-30T21:42:49.523Z,1.80
2019-01-30T21:45:18.445Z,1.80
2019-01-30T21:47:46.663Z,1.80
2019-01-30T21:50:15.109Z,1.80
2019-01-30T21:52:43.109Z,1.80
2019-01-30T21:55:12.859Z,1.80
2019-01-30T21:57:40.947Z,1.80
2019-01-30T22:00:10.682Z,1.70
2019-01-30T22:02:38.625Z,1.80
2019-01-30T22:05:06.625Z,1.70
2019-01-30T22:07:34.648Z,1.70
2019-01-30T22:10:02.663Z,1.80
2019-01-30T22:12:30.589Z,1.80
2019-01-30T22:14:58.509Z,1.80
2019-01-30T22:17:26.486Z,1.80
2019-01-30T22:19:54.449Z,1.80
2019-01-30T22:22:22.436Z,1.80
2019-01-30T22:24:50.351Z,1.70
2019-01-30T22:27:18.223Z,1.70
2019-01-30T22:29:46.206Z,1.70
2019-01-30T22:32:14.299Z,1.70
2019-01-30T22:34:42.284Z,1.70
2019-01-30T22:37:10.235Z,1.70
2019-01-30T22:39:38.184Z,1.70
2019-01-30T22:42:06.255Z,1.70
2019-01-30T22:44:34.266Z,1.70
2019-01-30T22:47:02.203Z,1.60
2019-01-30T22:49:30.309Z,1.60
2019-01-30T22:51:58.185Z,1.60
2019-01-30T22:54:26.142Z,1.60
2019-01-30T22:56:54.040Z,1.70
2019-01-30T22:59:22.066Z,1.80
2019-01-30T23:01:51.404Z,1.70
2019-01-30T23:04:41.412Z,1.60
2019-01-30T23:07:14.931Z,1.60
2019-01-30T23:10:02.139Z,1.60
2019-01-30T23:12:38.961Z,1.60
2019-01-30T23:15:10.796Z,1.60
2019-01-30T23:18:02.591Z,1.60
2019-01-30T23:20:33.660Z,1.60
2019-01-30T23:23:09.767Z,1.70
2019-01-30T23:25:56.947Z,1.70
2019-01-30T23:28:53.476Z,1.70
2019-01-30T23:31:40.639Z,1.70
2019-01-30T23:34:19.102Z,1.70
2019-01-30T23:37:00.502Z,1.60
2019-01-30T23:39:47.674Z,1.60
2019-01-30T23:42:29.744Z,1.60
2019-01-30T23:45:07.711Z,1.60
2019-01-30T23:47:40.498Z,1.60
2019-01-30T23:50:33.939Z,1.60
2019-01-30T23:53:40.312Z,1.50
2019-01-30T23:56:25.815Z,1.60
2019-01-30T23:59:11.568Z,1.50
